Time;durP1;ratioP1;P1;durP2;ratioP2;P2;SDS_P1;SDS_P2;PMS_P1;PMS_P2;Temp;Humidity;BMP_temperature;BMP_pressure;BME280_temperature;BME280_humidity;BME280_pressure;Samples;Min_cycle;Max_cycle;Signal;HPM_P1;HPM_P2
2022/07/14 00:01:20;;;;;;;1.00;0.60;;;19.80;99.90;;;;;;4995111;28;20201;-58
2022/07/14 00:03:46;;;;;;;0.63;0.55;;;19.80;99.90;;;;;;4995303;28;20215;-59
2022/07/14 00:06:12;;;;;;;0.93;0.60;;;19.80;99.90;;;;;;4961704;28;20174;-59
2022/07/14 00:08:38;;;;;;;0.90;0.80;;;19.80;99.90;;;;;;4995009;28;20173;-59
2022/07/14 00:11:04;;;;;;;0.68;0.50;;;19.90;99.90;;;;;;4993781;28;20689;-59
2022/07/14 00:13:30;;;;;;;0.82;0.75;;;19.90;99.90;;;;;;4993710;28;20683;-59
2022/07/14 00:15:56;;;;;;;0.75;0.70;;;19.80;99.90;;;;;;4993649;28;20574;-59
2022/07/14 00:18:22;;;;;;;1.08;0.70;;;19.80;99.90;;;;;;4994739;28;20669;-59
2022/07/14 00:20:48;;;;;;;0.60;0.60;;;19.80;99.90;;;;;;4993748;28;20189;-59
2022/07/14 00:23:14;;;;;;;0.85;0.60;;;19.80;99.90;;;;;;4993598;28;20224;-59
2022/07/14 00:25:40;;;;;;;0.90;0.50;;;19.80;99.90;;;;;;4994815;28;20364;-59
2022/07/14 00:28:06;;;;;;;1.65;0.60;;;19.80;99.90;;;;;;4993456;28;20543;-59
2022/07/14 00:30:32;;;;;;;0.98;0.70;;;19.70;99.90;;;;;;4993245;28;20209;-59
2022/07/14 00:32:58;;;;;;;1.08;0.55;;;19.70;99.90;;;;;;4994701;28;20688;-59
2022/07/14 00:35:24;;;;;;;0.68;0.60;;;19.70;99.90;;;;;;4993546;28;20228;-59
2022/07/14 00:37:50;;;;;;;1.27;0.88;;;19.70;99.90;;;;;;4993382;28;20702;-59
2022/07/14 00:40:15;;;;;;;0.52;0.52;;;19.70;99.90;;;;;;4994440;28;20276;-59
2022/07/14 00:42:46;;;;;;;0.50;0.50;;;19.80;99.90;;;;;;4994428;28;20173;-59
2022/07/14 00:45:14;;;;;;;1.23;0.85;;;19.70;99.90;;;;;;4994336;28;20192;-59
2022/07/14 00:47:42;;;;;;;0.60;0.52;;;19.80;99.90;;;;;;4994458;28;20173;-59
2022/07/14 00:50:09;;;;;;;2.05;0.70;;;19.80;99.90;;;;;;4976906;28;20316;-58
2022/07/14 00:52:35;;;;;;;1.65;0.63;;;19.70;99.90;;;;;;4994223;28;20181;-59
2022/07/14 00:55:01;;;;;;;0.85;0.70;;;19.60;99.90;;;;;;4992888;28;20245;-59
2022/07/14 00:57:27;;;;;;;0.60;0.60;;;19.60;99.90;;;;;;4994140;28;20174;-59
2022/07/14 00:59:54;;;;;;;0.70;0.60;;;19.50;99.90;;;;;;4993175;28;20173;-59
2022/07/14 01:02:20;;;;;;;0.73;0.73;;;19.60;99.90;;;;;;4993785;28;20185;-58
2022/07/14 01:04:50;;;;;;;0.60;0.60;;;19.60;99.90;;;;;;4992962;28;20174;-59
2022/07/14 01:07:21;;;;;;;0.60;0.60;;;19.60;99.90;;;;;;4994121;28;20177;-59
2022/07/14 01:09:47;;;;;;;0.60;0.60;;;19.50;99.90;;;;;;4992767;28;20678;-59
2022/07/14 01:12:13;;;;;;;0.50;0.50;;;19.40;99.90;;;;;;4992782;28;20188;-59
2022/07/14 01:14:39;;;;;;;0.60;0.60;;;19.40;99.90;;;;;;4994154;28;20260;-59
2022/07/14 01:17:06;;;;;;;0.80;0.80;;;19.40;99.90;;;;;;4976673;28;20189;-59
2022/07/14 01:19:36;;;;;;;0.95;0.80;;;19.40;99.90;;;;;;4993736;28;20621;-59
2022/07/14 01:22:02;;;;;;;0.60;0.60;;;19.30;99.90;;;;;;4993914;28;20177;-59
2022/07/14 01:24:28;;;;;;;1.60;0.80;;;19.30;99.90;;;;;;4993920;28;20169;-59
2022/07/14 01:26:54;;;;;;;0.68;0.65;;;19.30;99.90;;;;;;4993807;28;20272;-59
2022/07/14 01:29:20;;;;;;;1.00;0.90;;;19.40;99.90;;;;;;4992680;28;20197;-58
2022/07/14 01:31:46;;;;;;;1.20;0.60;;;19.50;99.90;;;;;;4993781;28;20182;-59
2022/07/14 01:34:12;;;;;;;1.23;0.82;;;19.40;99.90;;;;;;4993811;28;20177;-59
2022/07/14 01:36:38;;;;;;;0.82;0.60;;;19.30;99.90;;;;;;4993797;28;20522;-59
2022/07/14 01:39:05;;;;;;;0.75;0.55;;;19.40;99.90;;;;;;4993754;28;20260;-59
2022/07/14 01:41:32;;;;;;;0.75;0.75;;;19.50;99.90;;;;;;4993646;28;20192;-58
2022/07/14 01:43:57;;;;;;;0.77;0.77;;;19.50;99.90;;;;;;4993675;28;20260;-59
2022/07/14 01:46:23;;;;;;;0.80;0.60;;;19.50;99.90;;;;;;4993815;28;20252;-59
2022/07/14 01:48:49;;;;;;;0.60;0.60;;;19.40;99.90;;;;;;4976440;28;20181;-59
2022/07/14 01:51:15;;;;;;;2.33;0.80;;;19.30;99.90;;;;;;4992314;28;20220;-59
2022/07/14 01:53:41;;;;;;;0.73;0.70;;;19.20;99.90;;;;;;4993540;28;20174;-59
2022/07/14 01:56:08;;;;;;;0.43;0.43;;;19.20;99.90;;;;;;4992352;28;20165;-57
2022/07/14 01:58:34;;;;;;;0.50;0.50;;;19.30;99.90;;;;;;4993446;28;20188;-59
2022/07/14 02:03:47;;;;;;;1.17;0.82;;;19.20;99.90;;;;;;4992806;28;20204;-59
2022/07/14 02:06:13;;;;;;;0.60;0.60;;;19.20;99.90;;;;;;4993550;28;20264;-59
2022/07/14 02:08:39;;;;;;;0.88;0.75;;;19.20;99.90;;;;;;4992226;28;20185;-59
2022/07/14 02:13:49;;;;;;;0.82;0.80;;;19.00;99.90;;;;;;4997390;28;20185;-59
2022/07/14 02:16:15;;;;;;;0.55;0.55;;;19.10;99.90;;;;;;4996992;28;20185;-59
2022/07/14 02:18:41;;;;;;;0.80;0.80;;;19.10;99.90;;;;;;4995788;28;20729;-59
2022/07/14 02:21:07;;;;;;;0.70;0.70;;;19.20;99.90;;;;;;4996026;28;20185;-59
2022/07/14 02:23:33;;;;;;;0.63;0.60;;;18.90;99.90;;;;;;4997399;28;20531;-59
2022/07/14 02:25:59;;;;;;;0.50;0.50;;;18.90;99.90;;;;;;4997020;28;20189;-59
2022/07/14 02:28:25;;;;;;;0.75;0.70;;;18.80;99.90;;;;;;4996928;28;20186;-59
2022/07/14 02:30:51;;;;;;;1.00;0.70;;;18.90;99.90;;;;;;4996918;28;20741;-59
2022/07/14 02:33:17;;;;;;;1.20;0.95;;;18.90;99.90;;;;;;4996746;28;20261;-59
2022/07/14 02:35:43;;;;;;;0.75;0.75;;;18.90;99.90;;;;;;4996950;28;20181;-58
2022/07/14 02:38:12;;;;;;;1.70;1.10;;;18.90;99.90;;;;;;4997002;28;20244;-59
2022/07/14 02:40:38;;;;;;;0.75;0.73;;;18.90;99.90;;;;;;4996538;28;20639;-59
2022/07/14 02:43:04;;;;;;;0.93;0.50;;;18.80;99.90;;;;;;4996681;28;20188;-59
2022/07/14 02:45:30;;;;;;;1.25;0.88;;;18.90;99.90;;;;;;4995364;28;20177;-59
2022/07/14 02:47:55;;;;;;;0.80;0.70;;;18.90;99.90;;;;;;4996455;28;20204;-58
2022/07/14 02:50:21;;;;;;;0.57;0.57;;;18.80;99.90;;;;;;4996340;28;20221;-59
2022/07/14 02:52:47;;;;;;;1.15;0.68;;;18.80;99.90;;;;;;4995306;28;20173;-59
2022/07/14 02:55:12;;;;;;;0.80;0.70;;;18.80;99.90;;;;;;4996880;28;20174;-59
2022/07/14 02:57:38;;;;;;;0.80;0.80;;;18.70;99.90;;;;;;4996352;28;20174;-59
2022/07/14 03:00:06;;;;;;;2.03;1.33;;;18.70;99.90;;;;;;4995228;28;20181;-59
2022/07/14 03:02:32;;;;;;;0.70;0.63;;;18.60;99.90;;;;;;4996197;28;20181;-58
2022/07/14 03:04:58;;;;;;;0.80;0.60;;;18.60;99.90;;;;;;4995435;28;20248;-59
2022/07/14 03:07:23;;;;;;;0.57;0.52;;;18.60;99.90;;;;;;4996626;28;20178;-59
2022/07/14 03:09:49;;;;;;;0.88;0.85;;;18.70;99.90;;;;;;4995118;28;20213;-59
2022/07/14 03:12:15;;;;;;;1.77;0.70;;;18.60;99.90;;;;;;4995233;28;20618;-59
2022/07/14 03:14:40;;;;;;;0.70;0.57;;;18.50;99.90;;;;;;4978589;28;20551;-59
2022/07/14 03:17:06;;;;;;;1.42;0.90;;;18.50;99.90;;;;;;4995798;28;20635;-59
2022/07/14 03:19:32;;;;;;;1.10;0.63;;;18.50;99.90;;;;;;4994912;28;20185;-59
2022/07/14 03:21:57;;;;;;;0.90;0.57;;;18.40;99.90;;;;;;4978588;28;20639;-58
2022/07/14 03:24:24;;;;;;;1.40;0.60;;;18.20;99.90;;;;;;4995454;28;20184;-59
2022/07/14 03:26:50;;;;;;;0.82;0.75;;;18.30;99.90;;;;;;4994775;28;20197;-59
2022/07/14 03:29:15;;;;;;;1.17;0.60;;;18.30;99.90;;;;;;4996055;28;20213;-59
2022/07/14 03:31:44;;;;;;;0.98;0.60;;;18.20;99.90;;;;;;4994576;28;20201;-59
2022/07/14 03:34:12;;;;;;;1.77;0.70;;;18.20;99.90;;;;;;4994751;28;20531;-59
2022/07/14 03:36:37;;;;;;;0.63;0.60;;;18.10;99.90;;;;;;4994721;28;20178;-59
2022/07/14 03:39:04;;;;;;;0.55;0.55;;;18.10;99.90;;;;;;4994556;28;20174;-59
2022/07/14 03:41:29;;;;;;;1.42;0.68;;;18.10;99.90;;;;;;4978499;28;20517;-59
2022/07/14 03:43:55;;;;;;;0.60;0.60;;;18.20;99.90;;;;;;4994416;28;20264;-58
2022/07/14 03:46:21;;;;;;;0.80;0.80;;;18.20;99.90;;;;;;4995752;28;20212;-59
2022/07/14 03:48:46;;;;;;;1.15;0.70;;;18.10;99.90;;;;;;4995577;28;20182;-59
2022/07/14 03:51:12;;;;;;;0.60;0.60;;;18.10;99.90;;;;;;4978035;28;20208;-59
2022/07/14 03:53:38;;;;;;;0.70;0.70;;;18.20;99.90;;;;;;4994137;28;20181;-58
2022/07/14 03:56:04;;;;;;;1.73;0.80;;;18.20;99.90;;;;;;4995206;28;20179;-59
2022/07/14 03:58:30;;;;;;;0.50;0.50;;;18.10;99.90;;;;;;4995391;28;20188;-59
2022/07/14 04:00:55;;;;;;;0.77;0.77;;;18.10;99.90;;;;;;4995198;28;20542;-59
2022/07/14 04:03:21;;;;;;;0.68;0.68;;;18.20;99.90;;;;;;4977967;28;20183;-59
2022/07/14 04:05:47;;;;;;;1.30;0.90;;;18.20;99.90;;;;;;4995252;28;20543;-60
2022/07/14 04:08:13;;;;;;;0.70;0.63;;;18.20;99.90;;;;;;4993802;28;20181;-59
2022/07/14 04:10:39;;;;;;;0.77;0.77;;;18.20;99.90;;;;;;4993821;28;20217;-59
2022/07/14 04:13:05;;;;;;;0.82;0.60;;;18.20;99.90;;;;;;4995011;28;20169;-60
2022/07/14 04:15:31;;;;;;;1.40;0.75;;;18.20;99.90;;;;;;4995361;28;20268;-59
2022/07/14 04:17:58;;;;;;;1.10;0.90;;;18.20;99.90;;;;;;4995113;28;20268;-59
2022/07/14 04:20:24;;;;;;;0.90;0.82;;;18.30;99.90;;;;;;4994959;28;20199;-59
2022/07/14 04:22:53;;;;;;;1.10;0.60;;;18.30;99.90;;;;;;4994882;28;20178;-59
2022/07/14 04:25:18;;;;;;;1.10;0.85;;;18.30;99.90;;;;;;4994754;28;20181;-59
2022/07/14 04:27:44;;;;;;;1.65;1.00;;;18.20;99.90;;;;;;4993344;28;20658;-59
2022/07/14 04:30:12;;;;;;;0.82;0.75;;;18.20;99.90;;;;;;4993186;28;20209;-59
2022/07/14 04:32:38;;;;;;;0.77;0.73;;;18.30;99.90;;;;;;4994460;28;20624;-59
2022/07/14 04:35:05;;;;;;;1.27;1.00;;;18.30;99.90;;;;;;4993089;28;20181;-59
2022/07/14 04:37:30;;;;;;;1.38;1.00;;;18.30;99.90;;;;;;4994209;28;20196;-60
2022/07/14 04:39:57;;;;;;;0.77;0.73;;;18.40;99.90;;;;;;4993299;28;20538;-59
2022/07/14 04:42:23;;;;;;;0.80;0.60;;;18.40;99.90;;;;;;4994768;28;20181;-59
2022/07/14 04:44:49;;;;;;;1.27;0.90;;;18.50;99.90;;;;;;4994265;28;20224;-59
2022/07/14 04:47:15;;;;;;;1.15;0.73;;;18.50;99.90;;;;;;4994458;28;20571;-59
2022/07/14 04:52:25;;;;;;;1.00;0.80;;;18.50;99.90;;;;;;4994457;28;20235;-59
2022/07/14 04:54:52;;;;;;;0.70;0.70;;;18.50;99.90;;;;;;4994257;28;20538;-59
2022/07/14 04:57:19;;;;;;;0.50;0.50;;;18.50;99.90;;;;;;4994146;28;20653;-59
2022/07/14 04:59:45;;;;;;;0.63;0.52;;;18.60;99.90;;;;;;4993198;28;20181;-58
2022/07/14 05:02:11;;;;;;;0.63;0.60;;;18.60;99.90;;;;;;4993029;28;20179;-59
2022/07/14 05:04:37;;;;;;;0.93;0.70;;;18.50;99.90;;;;;;4994203;28;20177;-59
2022/07/14 05:07:03;;;;;;;0.55;0.50;;;18.30;99.90;;;;;;4993088;28;20192;-59
2022/07/14 05:09:32;;;;;;;2.10;0.65;;;18.30;99.90;;;;;;4992721;28;20303;-59
2022/07/14 05:12:02;;;;;;;0.40;0.40;;;18.30;99.90;;;;;;4993949;28;20181;-58
2022/07/14 05:14:29;;;;;;;0.52;0.52;;;18.30;99.90;;;;;;4994205;28;20174;-59
2022/07/14 05:16:55;;;;;;;0.95;0.60;;;18.40;99.90;;;;;;4992806;28;20243;-57
2022/07/14 05:19:21;;;;;;;1.17;0.60;;;18.40;99.90;;;;;;4992803;28;20673;-58
2022/07/14 05:21:47;;;;;;;0.63;0.60;;;18.30;99.90;;;;;;4993980;28;20173;-58
2022/07/14 05:24:13;;;;;;;0.70;0.70;;;18.40;99.90;;;;;;4992154;28;20181;-59
2022/07/14 05:26:39;;;;;;;0.75;0.60;;;18.40;99.90;;;;;;4992508;28;20708;-59
2022/07/14 05:29:09;;;;;;;0.98;0.50;;;18.50;99.90;;;;;;4993878;28;20176;-59
2022/07/14 05:31:34;;;;;;;0.70;0.70;;;18.60;99.90;;;;;;4993725;28;20647;-58
2022/07/14 05:34:00;;;;;;;0.60;0.60;;;18.60;99.90;;;;;;4993941;28;20208;-59
2022/07/14 05:36:26;;;;;;;0.60;0.60;;;18.60;99.90;;;;;;4993844;28;20536;-59
2022/07/14 05:38:52;;;;;;;2.42;0.60;;;18.70;99.90;;;;;;4993364;28;20647;-59
2022/07/14 05:41:19;;;;;;;1.05;0.55;;;18.80;99.90;;;;;;4993835;28;20181;-59
2022/07/14 05:43:46;;;;;;;1.10;1.00;;;18.70;99.90;;;;;;4993675;28;20197;-59
2022/07/14 05:46:12;;;;;;;2.35;1.00;;;18.70;99.90;;;;;;4993708;28;20188;-59
2022/07/14 05:48:38;;;;;;;0.88;0.88;;;18.70;99.90;;;;;;4997232;28;20169;-58
2022/07/14 05:51:06;;;;;;;1.23;0.75;;;18.80;99.90;;;;;;4997457;28;20209;-58
2022/07/14 05:53:32;;;;;;;0.70;0.60;;;18.80;99.90;;;;;;4997376;28;20673;-59
2022/07/14 05:55:58;;;;;;;0.70;0.70;;;18.60;99.90;;;;;;4993802;28;20181;-59
2022/07/14 05:58:24;;;;;;;0.93;0.70;;;18.70;99.90;;;;;;4996047;28;20236;-58
2022/07/14 06:00:50;;;;;;;1.05;0.68;;;18.90;99.90;;;;;;4996012;28;20181;-59
2022/07/14 06:03:15;;;;;;;0.93;0.73;;;19.00;99.90;;;;;;4996119;28;20220;-59
2022/07/14 06:05:41;;;;;;;0.90;0.57;;;19.00;99.90;;;;;;4996995;28;20177;-59
2022/07/14 06:08:07;;;;;;;1.75;0.77;;;19.10;99.90;;;;;;4995797;28;20177;-59
2022/07/14 06:10:33;;;;;;;0.70;0.70;;;19.10;99.90;;;;;;4997092;28;20212;-58
2022/07/14 06:12:59;;;;;;;2.40;0.80;;;19.10;99.90;;;;;;4997375;28;20264;-58
2022/07/14 06:15:24;;;;;;;0.82;0.70;;;19.30;99.90;;;;;;4995484;28;20189;-58
2022/07/14 06:17:50;;;;;;;1.10;0.80;;;19.40;99.90;;;;;;4994767;28;20193;-58
2022/07/14 06:20:16;;;;;;;0.73;0.73;;;19.50;99.90;;;;;;4996042;28;20211;-59
2022/07/14 06:22:41;;;;;;;0.95;0.65;;;19.60;99.90;;;;;;4996979;28;20169;-58
2022/07/14 06:25:08;;;;;;;0.80;0.50;;;19.60;99.90;;;;;;4996954;28;20184;-59
2022/07/14 06:27:33;;;;;;;1.25;0.95;;;19.60;99.90;;;;;;4997034;28;20177;-59
2022/07/14 07:10:04;;;;;;;3.03;0.90;;;20.70;99.90;;;;;;5335912;23;20231;-59
2022/07/14 07:12:30;;;;;;;2.13;0.90;;;20.70;99.90;;;;;;5017824;28;20536;-58
2022/07/14 07:14:56;;;;;;;3.25;0.70;;;20.90;99.90;;;;;;5017916;28;20168;-59
2022/07/14 07:17:21;;;;;;;2.00;0.68;;;21.10;99.90;;;;;;5035358;28;20183;-59
2022/07/14 07:19:47;;;;;;;0.60;0.60;;;21.40;99.90;;;;;;5035565;28;20188;-59
2022/07/14 07:22:14;;;;;;;1.08;0.70;;;21.60;99.90;;;;;;5035282;28;20215;-60
2022/07/14 07:24:40;;;;;;;0.95;0.70;;;21.60;99.90;;;;;;5034602;28;20702;-59
2022/07/14 07:27:06;;;;;;;0.98;0.85;;;21.80;99.90;;;;;;5035279;28;20177;-58
2022/07/14 07:29:32;;;;;;;1.52;0.70;;;21.90;99.90;;;;;;4999019;28;20668;-60
2022/07/14 07:31:58;;;;;;;1.30;0.55;;;21.90;99.90;;;;;;5034346;28;20176;-59
2022/07/14 07:34:26;;;;;;;0.57;0.52;;;21.80;99.90;;;;;;5017000;28;20187;-59
2022/07/14 07:36:52;;;;;;;0.47;0.47;;;22.00;99.90;;;;;;5035331;28;20218;-59
2022/07/14 07:39:18;;;;;;;2.58;0.95;;;22.10;99.90;;;;;;5034324;28;20180;-59
2022/07/14 07:41:43;;;;;;;3.10;0.60;;;21.80;99.90;;;;;;5034920;28;20545;-59
2022/07/14 07:44:09;;;;;;;1.58;0.85;;;22.10;99.90;;;;;;5034824;28;20188;-59
2022/07/14 07:46:35;;;;;;;3.20;0.60;;;22.40;99.80;;;;;;5034809;28;20206;-59
2022/07/14 07:49:00;;;;;;;0.77;0.65;;;22.20;99.00;;;;;;5000895;28;20172;-59
2022/07/14 07:51:26;;;;;;;1.13;0.70;;;21.80;99.70;;;;;;5034925;28;20238;-59
2022/07/14 07:53:52;;;;;;;0.47;0.47;;;21.70;99.90;;;;;;5034918;28;20259;-60
2022/07/14 07:56:17;;;;;;;1.60;0.70;;;21.50;99.90;;;;;;5000793;28;20215;-59
2022/07/14 07:58:43;;;;;;;1.67;0.75;;;21.40;99.20;;;;;;5017033;28;20621;-59
2022/07/14 08:01:09;;;;;;;0.68;0.60;;;21.40;99.20;;;;;;5000887;28;20176;-60
2022/07/14 08:03:35;;;;;;;1.10;1.02;;;21.20;99.40;;;;;;5034556;28;20543;-61
2022/07/14 08:06:00;;;;;;;0.50;0.40;;;21.20;99.70;;;;;;5034655;28;20187;-59
2022/07/14 08:08:26;;;;;;;0.90;0.57;;;21.20;99.90;;;;;;5016880;28;20263;-59
2022/07/14 08:10:52;;;;;;;0.82;0.50;;;21.20;97.90;;;;;;5016436;28;20208;-60
2022/07/14 08:13:18;;;;;;;0.55;0.50;;;21.30;98.30;;;;;;5034294;28;20172;-59
2022/07/14 08:15:44;;;;;;;1.13;0.80;;;21.60;98.40;;;;;;5034482;28;20560;-59
2022/07/14 08:18:10;;;;;;;0.52;0.50;;;21.50;97.60;;;;;;5034397;28;20179;-59
2022/07/14 08:20:36;;;;;;;0.50;0.35;;;21.50;98.00;;;;;;5016886;28;20238;-59
2022/07/14 08:23:02;;;;;;;1.92;0.60;;;21.60;97.70;;;;;;5034372;28;20175;-60
2022/07/14 08:25:28;;;;;;;0.85;0.40;;;21.60;97.60;;;;;;5034146;28;20534;-59
2022/07/14 08:27:54;;;;;;;1.85;0.60;;;21.60;97.30;;;;;;5016467;28;20291;-58
2022/07/14 08:30:20;;;;;;;0.70;0.40;;;21.50;96.30;;;;;;5034128;28;20727;-59
2022/07/14 08:32:49;;;;;;;0.85;0.50;;;21.50;95.70;;;;;;5034188;28;20177;-59
2022/07/14 08:35:17;;;;;;;0.98;0.60;;;21.50;95.60;;;;;;5034004;28;20176;-60
2022/07/14 08:37:43;;;;;;;0.68;0.38;;;21.50;95.90;;;;;;5033947;28;20195;-59
2022/07/14 08:40:11;;;;;;;1.13;0.70;;;21.60;95.70;;;;;;5034096;28;20588;-59
2022/07/14 08:42:38;;;;;;;0.70;0.30;;;21.60;96.50;;;;;;5033783;28;20168;-59
2022/07/14 08:45:18;;;;;;;0.70;0.40;;;21.80;96.40;;;;;;5033965;28;20211;-59
2022/07/14 08:47:44;;;;;;;0.90;0.88;;;21.70;95.60;;;;;;5034075;28;20172;-59
2022/07/14 08:50:13;;;;;;;2.10;0.60;;;21.90;95.80;;;;;;5015923;28;20204;-60
2022/07/14 08:52:41;;;;;;;0.70;0.50;;;22.00;96.20;;;;;;5033676;28;20216;-60
2022/07/14 08:55:08;;;;;;;0.65;0.63;;;22.20;96.40;;;;;;5033453;28;20219;-59
2022/07/14 08:57:34;;;;;;;0.77;0.47;;;22.20;96.30;;;;;;5016030;28;20263;-59
2022/07/14 09:00:00;;;;;;;0.40;0.40;;;22.20;96.40;;;;;;5034011;28;20183;-59
2022/07/14 09:02:26;;;;;;;0.68;0.47;;;22.30;96.60;;;;;;5033601;28;20517;-59
2022/07/14 09:04:52;;;;;;;1.30;0.93;;;22.60;96.50;;;;;;5033475;28;20180;-59
2022/07/14 09:07:36;;;;;;;2.70;0.45;;;22.80;96.30;;;;;;5033404;28;20176;-59
2022/07/14 09:10:13;;;;;;;0.63;0.40;;;23.10;95.70;;;;;;5033475;28;20219;-60
2022/07/14 09:12:41;;;;;;;1.00;0.50;;;23.10;95.40;;;;;;5033539;28;20683;-59
2022/07/14 09:17:54;;;;;;;2.00;0.80;;;23.70;95.30;;;;;;5033575;28;20187;-56
2022/07/14 09:20:21;;;;;;;0.63;0.60;;;23.70;95.30;;;;;;5033557;28;20255;-59
2022/07/14 09:22:47;;;;;;;1.02;0.75;;;23.60;94.90;;;;;;5015319;28;20179;-59
2022/07/14 09:25:17;;;;;;;2.03;0.60;;;23.80;95.40;;;;;;5033398;28;20171;-59
2022/07/14 09:27:45;;;;;;;1.50;0.85;;;24.00;95.10;;;;;;5015654;28;20568;-59
2022/07/14 09:30:12;;;;;;;0.93;0.80;;;23.80;94.80;;;;;;5033068;28;20686;-59
2022/07/14 09:32:42;;;;;;;1.88;0.70;;;23.60;94.80;;;;;;5033040;28;20204;-60
2022/07/14 09:35:11;;;;;;;1.33;0.73;;;23.70;94.30;;;;;;5033281;28;20771;-59
2022/07/14 09:37:39;;;;;;;0.82;0.60;;;23.80;95.00;;;;;;5033286;28;20199;-59
2022/07/14 09:40:09;;;;;;;1.15;0.60;;;24.10;95.10;;;;;;5033149;28;20180;-61
2022/07/14 09:42:58;;;;;;;1.02;0.70;;;24.30;94.60;;;;;;5032846;28;20518;-59
2022/07/14 09:45:49;;;;;;;1.48;0.70;;;24.30;94.50;;;;;;5033291;28;20191;-59
2022/07/14 09:48:17;;;;;;;0.60;0.52;;;24.50;93.90;;;;;;5033079;28;20573;-60
2022/07/14 09:50:54;;;;;;;1.42;0.85;;;24.30;93.50;;;;;;5032986;28;20196;-60
2022/07/14 09:53:23;;;;;;;0.68;0.63;;;24.20;93.60;;;;;;5032907;28;20214;-60
2022/07/14 09:56:03;;;;;;;0.88;0.38;;;24.20;93.30;;;;;;5014510;28;20180;-59
2022/07/14 09:58:54;;;;;;;2.00;0.73;;;24.50;93.30;;;;;;5031308;28;20186;-57
2022/07/14 10:01:20;;;;;;;1.00;0.60;;;24.70;91.70;;;;;;5032876;28;20172;-60
2022/07/14 10:03:49;;;;;;;1.25;0.60;;;24.60;92.00;;;;;;5032880;28;20175;-60
2022/07/14 10:06:18;;;;;;;3.10;0.95;;;24.50;92.40;;;;;;5032864;28;20179;-60
2022/07/14 10:08:49;;;;;;;0.80;0.70;;;24.30;92.20;;;;;;5033019;28;20203;-60
2022/07/14 10:11:16;;;;;;;1.25;0.70;;;24.10;92.60;;;;;;5032934;28;20208;-59
2022/07/14 10:13:43;;;;;;;1.55;0.88;;;24.20;93.10;;;;;;5015370;28;20168;-59
2022/07/14 10:16:08;;;;;;;1.20;0.80;;;24.10;92.40;;;;;;5015252;28;20629;-59
2022/07/14 10:18:34;;;;;;;2.20;0.73;;;24.20;92.70;;;;;;5032852;28;20184;-60
2022/07/14 10:21:01;;;;;;;2.67;0.80;;;24.40;92.90;;;;;;5015374;28;20538;-60
2022/07/14 10:23:29;;;;;;;0.82;0.73;;;24.40;91.60;;;;;;5032943;28;20184;-59
2022/07/14 10:25:59;;;;;;;1.60;0.50;;;24.10;91.70;;;;;;5032763;28;20222;-59
2022/07/14 10:28:26;;;;;;;1.33;0.57;;;24.20;92.60;;;;;;5032855;28;20200;-59
2022/07/14 10:31:07;;;;;;;1.83;0.43;;;24.40;92.10;;;;;;5032630;28;20206;-59
2022/07/14 10:33:45;;;;;;;0.52;0.30;;;24.90;91.40;;;;;;5033002;28;20690;-59
2022/07/14 10:36:17;;;;;;;0.95;0.60;;;25.30;91.00;;;;;;5036347;28;20175;-59
2022/07/14 10:39:35;;;;;;;1.10;0.30;;;25.70;90.20;;;;;;5036380;28;20263;-59
2022/07/14 10:42:31;;;;;;;1.02;0.43;;;25.20;87.90;;;;;;4994642;28;20551;-59
2022/07/14 10:45:00;;;;;;;0.35;0.22;;;24.80;88.70;;;;;;5005187;28;20184;-59
2022/07/14 10:47:51;;;;;;;0.88;0.40;;;24.40;90.30;;;;;;5036235;28;20176;-59
2022/07/14 10:50:24;;;;;;;0.30;0.30;;;24.30;90.40;;;;;;5018254;28;20668;-58
2022/07/14 10:53:04;;;;;;;1.50;0.52;;;24.20;90.10;;;;;;5035933;28;20164;-59
2022/07/14 10:55:30;;;;;;;0.40;0.38;;;24.30;89.90;;;;;;5035951;28;20267;-58
2022/07/14 10:57:59;;;;;;;0.40;0.40;;;24.20;86.80;;;;;;5036079;28;20693;-58
2022/07/14 11:00:55;;;;;;;1.55;0.55;;;23.90;84.20;;;;;;5018174;28;20194;-59
2022/07/14 11:03:46;;;;;;;0.30;0.30;;;24.00;81.90;;;;;;5034605;28;20188;-59
2022/07/14 11:06:16;;;;;;;2.33;0.40;;;24.00;84.90;;;;;;5018494;28;20219;-59
2022/07/14 11:08:45;;;;;;;1.40;0.38;;;24.00;86.70;;;;;;5035491;28;20178;-60
2022/07/14 11:11:23;;;;;;;0.35;0.32;;;24.00;86.10;;;;;;5035937;28;20274;-59
2022/07/14 11:14:10;;;;;;;0.35;0.35;;;24.10;87.60;;;;;;5034583;28;20180;-60
2022/07/14 11:16:47;;;;;;;0.57;0.52;;;24.10;86.80;;;;;;5035520;28;20184;-60
2022/07/14 11:19:27;;;;;;;0.32;0.32;;;24.10;88.60;;;;;;5035593;28;20176;-60
2022/07/14 11:22:13;;;;;;;3.13;0.70;;;24.20;86.40;;;;;;5035383;28;20556;-56
2022/07/14 11:24:45;;;;;;;0.52;0.30;;;24.10;86.50;;;;;;5035281;28;20619;-60
2022/07/14 11:27:36;;;;;;;1.25;0.45;;;24.20;87.90;;;;;;5035129;28;20520;-60
2022/07/14 11:30:21;;;;;;;0.60;0.60;;;24.00;86.80;;;;;;5035283;28;20200;-60
2022/07/14 11:32:57;;;;;;;0.90;0.60;;;24.00;87.20;;;;;;5035371;28;20214;-60
2022/07/14 11:38:29;;;;;;;0.82;0.45;;;24.20;88.70;;;;;;5035336;28;20191;-60
2022/07/14 11:40:58;;;;;;;0.45;0.38;;;24.00;86.00;;;;;;5035087;28;20184;-59
2022/07/14 11:43:30;;;;;;;0.47;0.47;;;24.10;87.80;;;;;;5017292;28;20584;-60
2022/07/14 11:45:58;;;;;;;1.02;0.50;;;24.10;87.30;;;;;;5034449;28;20183;-60
2022/07/14 11:48:30;;;;;;;0.50;0.50;;;24.20;87.70;;;;;;5035035;28;20172;-60
2022/07/14 11:51:12;;;;;;;1.08;0.68;;;24.10;86.70;;;;;;5034944;28;20534;-60
2022/07/14 11:53:39;;;;;;;0.75;0.75;;;24.30;88.20;;;;;;5033570;28;20183;-60
2022/07/14 11:56:09;;;;;;;1.35;0.50;;;24.50;88.30;;;;;;5016752;28;20178;-60
2022/07/14 11:58:37;;;;;;;1.88;0.68;;;24.50;87.60;;;;;;5033648;28;20183;-60
2022/07/14 12:01:03;;;;;;;0.50;0.50;;;24.60;86.70;;;;;;5017300;28;20183;-60
2022/07/14 12:03:29;;;;;;;0.40;0.40;;;24.50;86.20;;;;;;5034601;28;20187;-58
2022/07/14 12:05:57;;;;;;;1.48;0.50;;;24.70;86.60;;;;;;5034368;28;20533;-59
2022/07/14 12:08:36;;;;;;;0.57;0.50;;;24.70;86.30;;;;;;5032937;28;20203;-60
2022/07/14 12:11:12;;;;;;;1.33;0.60;;;24.90;86.00;;;;;;5034580;28;20664;-60
2022/07/14 12:13:45;;;;;;;1.38;0.50;;;24.90;86.20;;;;;;5034815;28;20681;-59
2022/07/14 12:16:11;;;;;;;0.65;0.50;;;25.10;86.00;;;;;;5016685;28;20180;-60
2022/07/14 12:18:37;;;;;;;1.08;0.60;;;24.90;86.40;;;;;;5034092;28;20187;-60
2022/07/14 12:21:03;;;;;;;1.02;0.60;;;24.50;87.20;;;;;;5034182;28;20191;-60
2022/07/14 12:23:28;;;;;;;0.60;0.60;;;24.70;87.40;;;;;;5033947;28;20191;-60
2022/07/14 12:26:02;;;;;;;0.40;0.40;;;25.00;87.80;;;;;;5034230;28;20187;-59
2022/07/14 12:28:28;;;;;;;0.90;0.70;;;25.30;87.70;;;;;;5034152;28;20175;-59
2022/07/14 12:30:58;;;;;;;1.15;0.68;;;25.50;87.10;;;;;;5033935;28;20314;-59
2022/07/14 12:33:37;;;;;;;0.70;0.60;;;25.10;87.30;;;;;;5033925;28;20263;-60
2022/07/14 12:36:04;;;;;;;1.60;0.75;;;25.10;87.50;;;;;;5016178;28;20176;-60
2022/07/14 12:38:36;;;;;;;0.43;0.43;;;25.00;87.30;;;;;;5033661;28;20183;-59
2022/07/14 12:41:03;;;;;;;0.70;0.60;;;25.00;87.50;;;;;;5034260;28;20565;-60
2022/07/14 12:43:35;;;;;;;2.85;0.40;;;24.90;87.70;;;;;;5033871;28;20510;-60
2022/07/14 12:46:04;;;;;;;0.43;0.40;;;24.90;88.10;;;;;;5033729;28;20215;-60
2022/07/14 12:48:35;;;;;;;0.80;0.50;;;24.70;89.80;;;;;;5033504;28;20172;-59
2022/07/14 12:51:20;;;;;;;0.50;0.50;;;24.90;89.00;;;;;;5033647;28;20203;-60
2022/07/14 12:53:57;;;;;;;0.93;0.60;;;24.50;87.50;;;;;;5033686;28;20238;-60
2022/07/14 12:56:23;;;;;;;1.88;0.45;;;24.40;88.90;;;;;;5032923;28;20176;-60
2022/07/14 12:58:49;;;;;;;0.55;0.55;;;24.70;89.80;;;;;;5033366;28;20183;-60
2022/07/14 13:01:15;;;;;;;0.52;0.52;;;24.60;88.30;;;;;;5016163;28;20175;-60
2022/07/14 13:03:41;;;;;;;0.50;0.50;;;24.50;87.80;;;;;;5015873;28;20202;-59
2022/07/14 13:06:06;;;;;;;0.65;0.50;;;24.40;87.80;;;;;;5032609;28;20176;-59
2022/07/14 13:08:37;;;;;;;0.77;0.63;;;24.20;87.70;;;;;;5033482;28;20543;-60
2022/07/14 13:11:08;;;;;;;0.30;0.30;;;24.20;88.20;;;;;;5033259;28;20219;-60
2022/07/14 13:13:43;;;;;;;1.13;0.55;;;24.20;88.40;;;;;;5033358;28;20176;-60
2022/07/14 13:16:20;;;;;;;0.57;0.57;;;24.60;88.90;;;;;;5032937;28;20167;-60
2022/07/14 13:19:07;;;;;;;1.35;0.50;;;24.70;87.90;;;;;;5032794;28;20502;-60
2022/07/14 13:21:52;;;;;;;2.25;0.73;;;24.70;86.50;;;;;;5033152;28;20633;-60
2022/07/14 13:24:23;;;;;;;0.60;0.60;;;24.60;86.40;;;;;;5033428;28;20263;-59
2022/07/14 13:26:58;;;;;;;0.40;0.40;;;24.50;86.80;;;;;;5033379;28;20176;-60
2022/07/14 13:29:24;;;;;;;1.25;0.60;;;24.80;88.90;;;;;;5033252;28;20502;-59
2022/07/14 13:31:50;;;;;;;3.38;0.50;;;25.10;86.30;;;;;;5032949;28;20183;-58
2022/07/14 13:34:16;;;;;;;2.13;0.50;;;25.40;86.40;;;;;;5015298;28;20172;-59
2022/07/14 13:36:43;;;;;;;0.30;0.30;;;25.40;84.90;;;;;;5033378;28;20506;-60
2022/07/14 13:39:09;;;;;;;1.10;0.52;;;25.60;85.20;;;;;;5033324;28;20211;-59
2022/07/14 13:41:36;;;;;;;0.75;0.50;;;25.50;85.10;;;;;;5014916;28;20258;-59
2022/07/14 13:44:01;;;;;;;0.75;0.60;;;25.40;85.70;;;;;;5033068;28;20641;-60
2022/07/14 13:46:27;;;;;;;0.60;0.60;;;25.40;86.50;;;;;;5033072;28;20180;-60
2022/07/14 13:48:53;;;;;;;0.57;0.38;;;25.60;86.60;;;;;;5015344;28;20644;-58